This is the latest recevied weather packets stored in our database for station/object OK1VCF-8. If no packets are shown the sender has not sent any weather packets the latest 10 day(s).
| Time | Temp. | Humidity | Pressure | Rain* | Wind** | Luminosity | Snow |
|---|---|---|---|---|---|---|---|
| 1777916062 | 22.22° C | 42% | 1012.1 hPa | - | - | - | - |
| 1777915625 | 22.22° C | 42% | 1012.2 hPa | - | - | - | - |
| 1777915186 | 22.22° C | 41% | 1012.2 hPa | - | - | - | - |
| 1777914748 | 22.78° C | 40% | 1012.3 hPa | - | - | - | - |
| 1777914311 | 23.33° C | 40% | 1012.2 hPa | - | - | - | - |
| 1777913871 | 23.33° C | 40% | 1012.4 hPa | - | - | - | - |
| 1777913433 | 23.33° C | 40% | 1012.4 hPa | - | - | - | - |
| 1777912995 | 23.33° C | 39% | 1012.4 hPa | - | - | - | - |
| 1777912394 | 23.33° C | 38% | 1012.9 hPa | - | - | - | - |
| 1777911957 | 23.89° C | 39% | 1012.4 hPa | - | - | - | - |
| 1777911518 | 23.89° C | 38% | 1012.4 hPa | - | - | - | - |
| 1777911080 | 24.44° C | 38% | 1012.5 hPa | - | - | - | - |
| 1777910642 | 24.44° C | 38% | 1012.6 hPa | - | - | - | - |
| 1777910203 | 24.44° C | 38% | 1012.6 hPa | - | - | - | - |
| 1777909765 | 24.44° C | 38% | 1012.6 hPa | - | - | - | - |
| 1777909328 | 24.44° C | 36% | 1012.7 hPa | - | - | - | - |
| 1777908890 | 24.44° C | 37% | 1012.7 hPa | - | - | - | - |
| 1777907578 | 27.78° C | 32% | 1012.8 hPa | - | - | - | - |
| 1777906272 | 28.89° C | 29% | 1013 hPa | - | - | - | - |
| 1777905671 | 28.89° C | 30% | 1013.1 hPa | - | - | - | - |
| 1777905231 | 27.78° C | 32% | 1013 hPa | - | - | - | - |
| 1777904792 | 27.78° C | 32% | 1013.4 hPa | - | - | - | - |
| 1777904353 | 26.67° C | 33% | 1013.3 hPa | - | - | - | - |
| 1777903911 | 26.11° C | 34% | 1013.3 hPa | - | - | - | - |
| 1777903470 | 25.56° C | 34% | 1013.4 hPa | - | - | - | - |
* Rain since midnight (hover to see other rain measurements)
** Current wind speed in m/s (hover to see current wind gust speed)